Fennimore, Wisconsin
Current Conditions -  °F | °C
As of 1:53 AM on Friday 24 Oct 2014 (Local Time) from KOVS Reporting Station
Haze Haze  
Wind Chill: 50°   Ceiling: 200
Heat Index: 50°   Visibility: 1.7mi
Dew Point: 49°   Wind: 5mph
Humidity: 96%   Direction: 240°WSW
Pressure: 30.06"   Gusts: NA
Location:  42.98°N, 90.66°W
Report Text: KOVS 240653Z AUTO 24004KT 1 3/4SM BR OVC002 10/09 A3006 RMK AO2 SLP181 T01000094 TSNO
Loading
Personal Weather Stations






























Interactive Weather Map
Tropical Storm Tracking
New forecast layout! Learn more

10-Day Weather Forecast

Advertisements
Track Severe Weather on mobile